Terminal Aerodrome Forecast
Issued by NWS Charleston, WV

Current Version | Previous Version | Text Only | Print | Product List | Glossary Off
Versions: 1 2 3 4 5 6 7 8 9 10 11 12 13 14 15 16 17 18 19 20 21 22 23

000
FTUS41 KRLX 171738
TAFHTS
TAF
KHTS 171738Z 1718/1818 20008KT P6SM VCTS SCT025CB BKN040
     FM172000 23007KT P6SM VCTS SCT035CB BKN070
     FM180400 21004KT 5SM -SHRA VCTS BKN025CB
     FM180800 22004KT P6SM OVC010
     FM181400 24005KT P6SM SCT100=

USA.gov is the U.S. government's official web portal to all federal, state and local government web resources and services.